createdAt,value
2023-02-09T00:00:34.866Z,102822.61
2023-02-09T00:03:30.621Z,102817.91
2023-02-09T00:06:05.074Z,102816.77
2023-02-09T00:08:38.107Z,102818.98
2023-02-09T00:11:12.356Z,102821.81
2023-02-09T00:13:45.693Z,102816.86
2023-02-09T00:16:17.482Z,102815.33
2023-02-09T00:18:49.228Z,102809.10
2023-02-09T00:21:21.352Z,102808.04
2023-02-09T00:23:53.003Z,102807.46
2023-02-09T00:26:25.535Z,102804.35
2023-02-09T00:28:57.339Z,102804.54
2023-02-09T00:31:29.475Z,102807.53
2023-02-09T00:34:03.667Z,102804.87
2023-02-09T00:36:35.890Z,102805.39
2023-02-09T00:39:09.655Z,102803.05
2023-02-09T00:41:59.650Z,102799.33
2023-02-09T00:44:33.143Z,102792.71
2023-02-09T00:47:06.015Z,102784.24
2023-02-09T00:49:40.076Z,102781.83
2023-02-09T00:52:12.268Z,102783.22
2023-02-09T00:54:44.980Z,102780.05
2023-02-09T00:57:16.868Z,102776.63
2023-02-09T00:59:48.846Z,102776.25
2023-02-09T01:02:21.056Z,102771.09
2023-02-09T01:04:53.515Z,102771.38
2023-02-09T01:07:25.426Z,102769.34
2023-02-09T01:10:00.029Z,102773.27
2023-02-09T01:12:32.944Z,102766.54
2023-02-09T01:15:05.080Z,102759.33
2023-02-09T01:17:37.540Z,102755.73
2023-02-09T01:20:11.611Z,102756.41
2023-02-09T01:22:43.539Z,102756.83
2023-02-09T01:25:16.480Z,102751.24
2023-02-09T01:27:48.394Z,102751.98
2023-02-09T01:30:20.160Z,102752.56
2023-02-09T01:32:52.628Z,102749.75
2023-02-09T01:35:25.016Z,102748.25
2023-02-09T01:37:56.917Z,102748.59
2023-02-09T01:40:28.831Z,102747.80
2023-02-09T01:43:01.238Z,102743.73
2023-02-09T01:45:37.655Z,102732.37
2023-02-09T01:48:09.397Z,102730.52
2023-02-09T01:50:45.182Z,102721.51
2023-02-09T01:53:18.849Z,102719.39
2023-02-09T01:55:55.918Z,102714.61
2023-02-09T01:58:29.723Z,102708.85
2023-02-09T02:01:01.995Z,102709.92
2023-02-09T02:03:34.348Z,102701.95
2023-02-09T02:06:12.055Z,102690.77
2023-02-09T02:08:49.085Z,102690.77
2023-02-09T02:11:21.490Z,102684.52
2023-02-09T02:13:53.940Z,102682.64
2023-02-09T02:16:40.216Z,102678.70
2023-02-09T02:19:40.049Z,102670.98
2023-02-09T02:22:42.097Z,102662.70
2023-02-09T02:25:39.445Z,102663.36
2023-02-09T02:28:34.027Z,102657.04
2023-02-09T02:31:28.503Z,102656.76
2023-02-09T02:34:05.464Z,102652.58
2023-02-09T02:36:45.871Z,102643.11
2023-02-09T02:39:24.300Z,102638.69
2023-02-09T02:42:21.271Z,102632.30
2023-02-09T02:44:59.605Z,102621.66
2023-02-09T02:47:36.301Z,102615.55
2023-02-09T02:50:13.731Z,102614.05
2023-02-09T02:52:49.629Z,102610.50
2023-02-09T02:55:25.481Z,102613.13
2023-02-09T02:58:03.197Z,102607.99
2023-02-09T03:00:40.568Z,102608.40
2023-02-09T03:03:15.833Z,102601.23
2023-02-09T03:05:48.521Z,102607.02
2023-02-09T03:08:20.303Z,102609.83
2023-02-09T03:10:52.847Z,102603.67
2023-02-09T03:13:42.055Z,102603.09
2023-02-09T03:16:22.462Z,102602.54
2023-02-09T03:19:13.099Z,102600.30
2023-02-09T03:21:53.893Z,102594.04
2023-02-09T03:24:36.616Z,102590.94
2023-02-09T03:27:19.506Z,102589.23
2023-02-09T03:29:54.942Z,102581.57
2023-02-09T03:32:27.717Z,102580.65
2023-02-09T03:35:00.046Z,102574.17
2023-02-09T03:37:31.991Z,102575.03
2023-02-09T03:40:04.269Z,102571.95
2023-02-09T03:42:36.115Z,102571.16
2023-02-09T03:45:09.451Z,102571.27
2023-02-09T03:47:41.702Z,102568.30
2023-02-09T03:50:14.065Z,102568.11
2023-02-09T03:52:46.096Z,102569.92
2023-02-09T03:55:18.046Z,102569.34
2023-02-09T03:57:49.898Z,102565.30
2023-02-09T04:00:22.123Z,102560.36
2023-02-09T04:02:54.144Z,102559.09
2023-02-09T04:05:25.990Z,102561.55
2023-02-09T04:08:00.449Z,102560.80
2023-02-09T04:10:32.243Z,102565.10
2023-02-09T04:13:04.076Z,102564.11
2023-02-09T04:15:36.517Z,102561.11
2023-02-09T04:18:08.625Z,102550.69
2023-02-09T04:20:40.366Z,102546.27
2023-02-09T04:23:12.414Z,102543.42
2023-02-09T04:25:45.520Z,102544.91
2023-02-09T04:28:17.445Z,102542.95
2023-02-09T04:30:54.938Z,102536.89
2023-02-09T04:33:27.364Z,102531.90
2023-02-09T04:35:59.889Z,102527.59
2023-02-09T04:38:31.908Z,102524.71
2023-02-09T04:41:05.296Z,102526.27
2023-02-09T04:43:37.119Z,102520.77
2023-02-09T04:46:12.869Z,102522.32
2023-02-09T04:48:45.999Z,102525.21
2023-02-09T04:51:17.809Z,102521.45
2023-02-09T04:53:49.577Z,102520.53
2023-02-09T04:56:21.404Z,102518.00
2023-02-09T04:59:10.910Z,102511.73
2023-02-09T05:01:42.905Z,102508.60
2023-02-09T05:04:14.638Z,102502.13
2023-02-09T05:06:46.387Z,102504.27
2023-02-09T05:09:18.214Z,102498.55
2023-02-09T05:11:50.103Z,102490.99
2023-02-09T05:14:22.104Z,102487.69
2023-02-09T05:16:54.208Z,102492.42
2023-02-09T05:19:26.295Z,102488.12
2023-02-09T05:21:58.483Z,102493.31
2023-02-09T05:24:30.705Z,102488.99
2023-02-09T05:27:02.456Z,102485.09
2023-02-09T05:29:34.181Z,102479.41
2023-02-09T05:32:06.338Z,102476.73
2023-02-09T05:34:38.495Z,102468.77
2023-02-09T05:37:10.263Z,102466.29
2023-02-09T05:39:42.031Z,102465.08
2023-02-09T05:42:17.769Z,102460.96
2023-02-09T05:44:50.909Z,102461.67
2023-02-09T05:47:25.611Z,102454.51
2023-02-09T05:49:58.337Z,102455.46
2023-02-09T05:52:28.866Z,102452.30
2023-02-09T05:55:00.967Z,102450.77
2023-02-09T05:57:32.822Z,102446.73
2023-02-09T06:00:05.455Z,102454.57
2023-02-09T06:02:44.116Z,102450.38
2023-02-09T06:05:16.123Z,102450.27
2023-02-09T06:07:47.946Z,102450.33
2023-02-09T06:10:20.090Z,102458.17
2023-02-09T06:12:52.176Z,102450.54
2023-02-09T06:15:23.891Z,102451.52
2023-02-09T06:17:56.118Z,102450.59
2023-02-09T06:20:28.474Z,102445.04
2023-02-09T06:23:00.242Z,102444.15
2023-02-09T06:25:32.274Z,102435.73
2023-02-09T06:28:04.427Z,102441.54
2023-02-09T06:30:36.387Z,102440.98
2023-02-09T06:33:08.136Z,102437.30
2023-02-09T06:35:40.136Z,102434.36
2023-02-09T06:38:11.943Z,102436.64
2023-02-09T06:40:44.129Z,102433.64
2023-02-09T06:43:16.133Z,102431.36
2023-02-09T06:45:47.944Z,102433.59
2023-02-09T06:48:20.017Z,102429.05
2023-02-09T06:50:50.917Z,102429.61
2023-02-09T06:53:22.834Z,102424.10
2023-02-09T06:56:00.047Z,102428.09
2023-02-09T06:58:31.999Z,102425.50
2023-02-09T07:01:05.961Z,102423.55
2023-02-09T07:03:38.355Z,102424.46
2023-02-09T07:06:13.113Z,102426.42
2023-02-09T07:08:46.154Z,102428.66
2023-02-09T07:11:19.303Z,102428.88
2023-02-09T07:13:51.221Z,102426.31
2023-02-09T07:16:24.166Z,102420.45
2023-02-09T07:18:56.186Z,102421.73
2023-02-09T07:21:28.354Z,102425.35
2023-02-09T07:24:00.296Z,102426.76
2023-02-09T07:26:32.485Z,102424.08
2023-02-09T07:29:05.285Z,102424.36
2023-02-09T07:31:37.511Z,102423.60
2023-02-09T07:34:09.827Z,102422.77
2023-02-09T07:36:41.762Z,102419.30
2023-02-09T07:39:14.406Z,102423.11
2023-02-09T07:41:46.484Z,102425.29
2023-02-09T07:44:18.645Z,102423.67
2023-02-09T07:46:50.746Z,102425.22
2023-02-09T07:49:22.923Z,102427.02
2023-02-09T07:51:55.139Z,102431.39
2023-02-09T07:54:27.067Z,102428.36
2023-02-09T07:56:59.395Z,102430.05
2023-02-09T07:59:31.838Z,102423.52
2023-02-09T08:02:05.247Z,102418.82
2023-02-09T08:04:37.992Z,102419.95
2023-02-09T08:07:10.081Z,102419.77
2023-02-09T08:09:45.197Z,102421.66
2023-02-09T08:12:18.754Z,102419.60
2023-02-09T08:14:51.944Z,102420.73
2023-02-09T08:17:25.953Z,102415.28
2023-02-09T08:20:04.103Z,102414.64
2023-02-09T08:22:39.784Z,102411.45
2023-02-09T08:25:12.052Z,102419.85
2023-02-09T08:27:45.287Z,102414.69
2023-02-09T08:30:19.800Z,102419.09
2023-02-09T08:32:51.752Z,102412.91
2023-02-09T08:35:23.855Z,102410.45
2023-02-09T08:37:56.048Z,102410.65
2023-02-09T08:40:28.209Z,102407.50
2023-02-09T08:43:00.710Z,102406.80
2023-02-09T08:45:31.366Z,102399.82
2023-02-09T08:48:03.301Z,102398.60
2023-02-09T08:50:36.142Z,102394.55
2023-02-09T08:53:08.851Z,102391.02
2023-02-09T08:55:40.964Z,102395.61
2023-02-09T08:58:13.494Z,102398.17
2023-02-09T09:00:46.670Z,102396.89
2023-02-09T09:03:18.621Z,102400.09
2023-02-09T09:05:51.173Z,102383.11
2023-02-09T09:08:23.348Z,102391.86
2023-02-09T09:10:55.370Z,102391.63
2023-02-09T09:13:28.079Z,102397.83
2023-02-09T09:16:00.666Z,102394.55
2023-02-09T09:18:32.590Z,102393.94
2023-02-09T09:21:04.861Z,102393.60
2023-02-09T09:23:38.036Z,102399.16
2023-02-09T09:26:10.541Z,102400.80
2023-02-09T09:28:42.563Z,102393.06
2023-02-09T09:31:17.415Z,102390.51
2023-02-09T09:33:49.672Z,102390.60
2023-02-09T09:36:21.801Z,102386.52
2023-02-09T09:38:55.778Z,102383.89
2023-02-09T09:41:37.559Z,102387.26
2023-02-09T09:44:16.265Z,102383.73
2023-02-09T09:46:52.979Z,102387.71
2023-02-09T09:49:28.432Z,102382.70
2023-02-09T09:52:04.998Z,102386.27
2023-02-09T09:54:38.966Z,102384.88
2023-02-09T09:57:20.992Z,102378.30
2023-02-09T09:59:54.691Z,102372.36
2023-02-09T10:02:30.383Z,102372.11
2023-02-09T10:05:11.853Z,102368.98
2023-02-09T10:07:46.242Z,102375.15
2023-02-09T10:10:25.387Z,102377.63
2023-02-09T10:13:02.328Z,102382.20
2023-02-09T10:15:36.776Z,102380.75
2023-02-09T10:18:17.946Z,102383.35
2023-02-09T10:20:51.988Z,102381.75
2023-02-09T10:23:27.616Z,102379.28
2023-02-09T10:26:17.110Z,102380.45
2023-02-09T10:28:51.113Z,102376.62
2023-02-09T10:31:27.839Z,102376.20
2023-02-09T10:34:04.967Z,102373.55
2023-02-09T10:36:48.035Z,102374.14
2023-02-09T10:39:23.841Z,102372.35
2023-02-09T10:41:58.430Z,102362.59
2023-02-09T10:44:39.421Z,102359.48
2023-02-09T10:47:29.016Z,102359.32
2023-02-09T10:50:09.242Z,102354.06
2023-02-09T10:52:44.471Z,102351.88
2023-02-09T10:55:22.574Z,102349.45
2023-02-09T10:58:04.731Z,102345.21
2023-02-09T11:00:44.383Z,102345.89
2023-02-09T11:03:20.528Z,102342.46
2023-02-09T11:06:00.898Z,102337.64
2023-02-09T11:08:42.715Z,102329.28
2023-02-09T11:11:28.587Z,102334.83
2023-02-09T11:14:01.669Z,102317.90
2023-02-09T11:16:58.024Z,102317.64
2023-02-09T11:19:59.736Z,102314.19
2023-02-09T11:22:49.558Z,102314.91
2023-02-09T11:25:26.226Z,102310.34
2023-02-09T11:28:31.658Z,102298.48
2023-02-09T11:31:17.893Z,102297.02
2023-02-09T11:34:01.686Z,102299.05
2023-02-09T11:36:46.978Z,102296.88
2023-02-09T11:39:26.111Z,102290.66
2023-02-09T11:42:22.135Z,102282.44
2023-02-09T11:45:00.550Z,102279.25
2023-02-09T11:47:43.926Z,102273.59
2023-02-09T11:50:25.374Z,102268.70
2023-02-09T11:53:01.130Z,102271.11
2023-02-09T11:55:38.510Z,102260.60
2023-02-09T11:58:31.471Z,102256.08
2023-02-09T12:01:15.792Z,102261.35
2023-02-09T12:04:00.613Z,102243.02
2023-02-09T12:06:38.527Z,102246.02
2023-02-09T12:09:27.383Z,102235.30
2023-02-09T12:12:09.708Z,102233.53
2023-02-09T12:14:56.379Z,102232.34
2023-02-09T12:17:37.492Z,102225.95
2023-02-09T12:20:27.660Z,102221.45
2023-02-09T12:23:02.550Z,102217.68
2023-02-09T12:25:51.528Z,102216.05
2023-02-09T12:28:46.617Z,102215.61
2023-02-09T12:31:24.790Z,102220.41
2023-02-09T12:34:30.179Z,102213.77
2023-02-09T12:37:27.335Z,102204.70
2023-02-09T12:40:24.421Z,102202.72
2023-02-09T12:43:26.048Z,102207.15
2023-02-09T12:46:23.080Z,102196.40
2023-02-09T12:49:10.063Z,102194.69
2023-02-09T12:51:52.098Z,102188.95
2023-02-09T12:54:39.743Z,102181.54
2023-02-09T12:57:51.027Z,102177.29
2023-02-09T13:00:55.644Z,102179.10
2023-02-09T13:03:29.821Z,102172.87
2023-02-09T13:06:11.649Z,102167.77
2023-02-09T13:08:53.298Z,102158.98
2023-02-09T13:11:41.589Z,102162.52
2023-02-09T13:14:16.337Z,102149.52
2023-02-09T13:16:59.802Z,102141.98
2023-02-09T13:19:54.340Z,102141.48
2023-02-09T13:22:40.862Z,102139.82
2023-02-09T13:25:16.706Z,102128.64
2023-02-09T13:27:50.904Z,102130.55
2023-02-09T13:30:32.740Z,102126.42
2023-02-09T13:33:13.523Z,102126.22
2023-02-09T13:35:58.335Z,102128.39
2023-02-09T13:38:34.680Z,102130.93
2023-02-09T13:41:08.765Z,102126.83
2023-02-09T13:43:44.019Z,102128.80
2023-02-09T13:46:26.843Z,102128.04
2023-02-09T13:49:10.657Z,102126.90
2023-02-09T13:51:42.507Z,102133.05
2023-02-09T13:54:21.523Z,102128.37
2023-02-09T13:56:53.263Z,102127.00
2023-02-09T13:59:25.642Z,102126.92
2023-02-09T14:01:57.768Z,102126.65
2023-02-09T14:04:34.930Z,102123.61
2023-02-09T14:07:10.936Z,102115.86
2023-02-09T14:09:52.372Z,102113.73
2023-02-09T14:12:55.604Z,102105.40
2023-02-09T14:16:02.545Z,102098.17
2023-02-09T14:18:53.165Z,102098.04
2023-02-09T14:21:34.260Z,102106.52
2023-02-09T14:24:18.453Z,102115.90
2023-02-09T14:26:54.354Z,102121.38
2023-02-09T14:29:29.126Z,102123.61
2023-02-09T14:32:03.119Z,102127.36
2023-02-09T14:34:37.450Z,102133.21
2023-02-09T14:37:32.074Z,102134.69
2023-02-09T14:40:20.802Z,102141.71
2023-02-09T14:43:17.045Z,102134.13
2023-02-09T14:45:58.818Z,102123.59
2023-02-09T14:48:32.570Z,102116.01
2023-02-09T14:51:14.296Z,102111.61
2023-02-09T14:53:46.571Z,102099.27
2023-02-09T14:56:28.564Z,102088.29
2023-02-09T14:59:00.603Z,102077.11
2023-02-09T15:01:33.094Z,102073.56
2023-02-09T15:04:05.445Z,102070.49
2023-02-09T15:06:37.854Z,102067.72
2023-02-09T15:09:11.747Z,102066.36
2023-02-09T15:12:01.154Z,102068.39
2023-02-09T15:14:35.032Z,102067.98
2023-02-09T15:17:15.736Z,102065.90
2023-02-09T15:19:48.694Z,102067.09
2023-02-09T15:22:22.338Z,102065.30
2023-02-09T15:25:03.730Z,102071.41
2023-02-09T15:27:42.438Z,102070.80
2023-02-09T15:30:21.284Z,102064.62
2023-02-09T15:32:55.606Z,102057.92
2023-02-09T15:35:29.407Z,102053.02
2023-02-09T15:38:02.576Z,102048.36
2023-02-09T15:40:55.433Z,102047.00
2023-02-09T15:43:46.586Z,102044.69
2023-02-09T15:46:36.196Z,102039.88
2023-02-09T15:49:08.558Z,102036.86
2023-02-09T15:51:41.625Z,102031.23
2023-02-09T15:54:18.984Z,102031.81
2023-02-09T15:56:50.934Z,102038.48
2023-02-09T15:59:28.898Z,102044.65
2023-02-09T16:02:03.408Z,102052.44
2023-02-09T16:04:35.206Z,102052.70
2023-02-09T16:07:07.292Z,102053.73
2023-02-09T16:09:40.865Z,102060.22
2023-02-09T16:12:13.527Z,102056.73
2023-02-09T16:14:44.343Z,102055.55
2023-02-09T16:17:16.019Z,102057.77
2023-02-09T16:19:49.176Z,102061.31
2023-02-09T16:22:25.536Z,102065.34
2023-02-09T16:25:00.017Z,102058.93
2023-02-09T16:27:34.816Z,102052.44
2023-02-09T16:30:18.185Z,102055.26
2023-02-09T16:32:50.846Z,102060.17
2023-02-09T16:35:30.080Z,102060.52
2023-02-09T16:38:19.029Z,102067.42
2023-02-09T16:40:51.667Z,102074.25
2023-02-09T16:43:22.512Z,102080.92
2023-02-09T16:46:03.357Z,102072.59
2023-02-09T16:48:46.710Z,102056.71
2023-02-09T16:51:19.538Z,102057.34
2023-02-09T16:53:53.297Z,102054.58
2023-02-09T16:56:26.251Z,102036.35
2023-02-09T16:58:58.002Z,102018.28
2023-02-09T17:01:30.132Z,102022.65
2023-02-09T17:04:03.221Z,102029.64
2023-02-09T17:06:35.620Z,102018.28
2023-02-09T17:09:13.296Z,102009.14
2023-02-09T17:11:45.054Z,102006.24
2023-02-09T17:14:16.711Z,102006.85
2023-02-09T17:16:59.745Z,102003.82
2023-02-09T17:19:47.104Z,102005.25
2023-02-09T17:22:20.297Z,102007.70
2023-02-09T17:24:52.563Z,102016.30
2023-02-09T17:27:24.326Z,102009.14
2023-02-09T17:29:56.018Z,102006.48
2023-02-09T17:32:28.096Z,102010.42
2023-02-09T17:35:00.867Z,102015.05
2023-02-09T17:37:31.076Z,102016.75
2023-02-09T17:40:03.146Z,102014.70
2023-02-09T17:42:37.813Z,102024.48
2023-02-09T17:45:22.073Z,102021.50
2023-02-09T17:48:05.955Z,102023.23
2023-02-09T17:50:44.669Z,102017.80
2023-02-09T17:53:20.609Z,102019.88
2023-02-09T17:55:53.914Z,102025.71
2023-02-09T17:58:26.720Z,102029.23
2023-02-09T18:00:59.277Z,102026.41
2023-02-09T18:03:31.057Z,102028.53
2023-02-09T18:06:03.489Z,102027.04
2023-02-09T18:08:35.433Z,102030.63
2023-02-09T18:11:14.767Z,102023.73
2023-02-09T18:13:46.813Z,102019.21
2023-02-09T18:16:18.522Z,102020.48
2023-02-09T18:18:50.615Z,102024.39
2023-02-09T18:21:22.302Z,102022.35
2023-02-09T18:23:54.010Z,102023.21
2023-02-09T18:26:25.871Z,102010.94
2023-02-09T18:28:57.662Z,101994.41
2023-02-09T18:31:29.625Z,101978.20
2023-02-09T18:34:01.481Z,101992.17
2023-02-09T18:36:33.995Z,101999.69
2023-02-09T18:39:06.075Z,101987.96
2023-02-09T18:41:37.898Z,101981.29
2023-02-09T18:44:09.734Z,101975.73
2023-02-09T18:46:42.506Z,101979.22
2023-02-09T18:49:14.865Z,101987.73
2023-02-09T18:51:46.768Z,101986.44
2023-02-09T18:54:18.573Z,101982.79
2023-02-09T18:56:50.479Z,101978.05
2023-02-09T18:59:22.748Z,101977.88
2023-02-09T19:01:54.573Z,101977.23
2023-02-09T19:04:26.366Z,101979.40
2023-02-09T19:06:58.078Z,101986.14
2023-02-09T19:09:29.863Z,101988.63
2023-02-09T19:12:01.630Z,101980.53
2023-02-09T19:14:40.551Z,101981.69
2023-02-09T19:17:16.370Z,101981.20
2023-02-09T19:19:48.976Z,101980.41
2023-02-09T19:22:22.136Z,101977.39
2023-02-09T19:24:57.208Z,101979.63
2023-02-09T19:27:29.813Z,101992.95
2023-02-09T19:30:01.556Z,101991.16
2023-02-09T19:32:33.784Z,101991.20
2023-02-09T19:35:07.187Z,101997.02
2023-02-09T19:37:43.461Z,101996.39
2023-02-09T19:40:21.450Z,101994.92
2023-02-09T19:42:53.182Z,101999.11
2023-02-09T19:45:24.942Z,101995.11
2023-02-09T19:47:57.480Z,101986.08
2023-02-09T19:50:29.308Z,101986.61
2023-02-09T19:53:02.763Z,101990.15
2023-02-09T19:55:34.910Z,101981.95
2023-02-09T19:58:06.683Z,101986.25
2023-02-09T20:00:38.813Z,101985.17
2023-02-09T20:03:11.263Z,101981.31
2023-02-09T20:05:44.095Z,101980.73
2023-02-09T20:08:18.836Z,101976.80
2023-02-09T20:10:50.513Z,101981.33
2023-02-09T20:15:53.364Z,101976.16
2023-02-09T20:18:26.493Z,101978.51
2023-02-09T20:20:59.356Z,101979.55
2023-02-09T20:23:31.186Z,101986.83
2023-02-09T20:26:02.922Z,101984.50
2023-02-09T20:28:34.745Z,101984.41
2023-02-09T20:31:07.540Z,101980.97
2023-02-09T20:33:41.211Z,101979.25
2023-02-09T20:36:13.369Z,101974.77
2023-02-09T20:38:45.754Z,101968.96
2023-02-09T20:41:18.923Z,101977.48
2023-02-09T20:44:08.587Z,101984.60
2023-02-09T20:46:57.553Z,101979.66
2023-02-09T20:49:31.384Z,101978.17
2023-02-09T20:52:03.643Z,101974.05
2023-02-09T20:54:36.330Z,101980.20
2023-02-09T20:57:08.467Z,101975.17
2023-02-09T20:59:40.355Z,101971.27
2023-02-09T21:02:15.021Z,101960.21
2023-02-09T21:04:47.078Z,101952.78
2023-02-09T21:07:20.181Z,101959.16
2023-02-09T21:10:13.030Z,101956.76
2023-02-09T21:13:02.772Z,101954.83
2023-02-09T21:15:35.155Z,101953.67
2023-02-09T21:18:07.561Z,101949.52
2023-02-09T21:20:39.623Z,101951.58
2023-02-09T21:23:11.548Z,101957.57
2023-02-09T21:25:44.287Z,101956.52
2023-02-09T21:28:16.246Z,101954.00
2023-02-09T21:30:48.732Z,101952.77
2023-02-09T21:33:19.200Z,101944.27
2023-02-09T21:35:50.963Z,101945.23
2023-02-09T21:38:22.879Z,101948.12
2023-02-09T21:40:54.805Z,101948.44
2023-02-09T21:43:27.008Z,101946.65
2023-02-09T21:45:58.751Z,101943.10
2023-02-09T21:48:30.755Z,101945.10
2023-02-09T21:51:04.080Z,101945.64
2023-02-09T21:53:38.908Z,101948.27
2023-02-09T21:56:12.466Z,101949.81
2023-02-09T21:58:44.443Z,101945.59
2023-02-09T22:01:16.265Z,101940.42
2023-02-09T22:03:52.640Z,101945.13
2023-02-09T22:06:25.284Z,101939.83
2023-02-09T22:08:55.614Z,101936.21
2023-02-09T22:11:27.603Z,101936.30
2023-02-09T22:13:59.346Z,101936.40
2023-02-09T22:16:37.258Z,101945.27
2023-02-09T22:19:10.695Z,101948.81
2023-02-09T22:21:42.587Z,101955.83
2023-02-09T22:24:17.261Z,101958.10
2023-02-09T22:26:49.657Z,101958.54
2023-02-09T22:29:21.651Z,101958.91
2023-02-09T22:31:53.608Z,101961.14
2023-02-09T22:34:25.555Z,101956.67
2023-02-09T22:36:57.357Z,101961.60
2023-02-09T22:39:29.239Z,101962.83
2023-02-09T22:42:01.350Z,101963.17
2023-02-09T22:44:33.441Z,101961.86
2023-02-09T22:47:05.679Z,101965.23
2023-02-09T22:49:37.450Z,101964.83
2023-02-09T22:52:09.683Z,101964.30
2023-02-09T22:54:41.817Z,101967.08
2023-02-09T22:57:13.594Z,101965.67
2023-02-09T22:59:45.461Z,101963.34
2023-02-09T23:02:17.161Z,101960.56
2023-02-09T23:04:49.063Z,101960.92
2023-02-09T23:07:20.748Z,101961.16
2023-02-09T23:09:52.602Z,101959.20
2023-02-09T23:12:24.306Z,101959.49
2023-02-09T23:14:57.450Z,101958.48
2023-02-09T23:17:29.598Z,101956.08
2023-02-09T23:20:01.306Z,101957.54
2023-02-09T23:22:33.093Z,101956.19
2023-02-09T23:25:06.202Z,101958.48
2023-02-09T23:27:37.898Z,101951.54
2023-02-09T23:30:11.386Z,101951.66
2023-02-09T23:32:43.294Z,101953.80
2023-02-09T23:35:17.551Z,101950.65
2023-02-09T23:37:49.810Z,101953.30
2023-02-09T23:40:21.732Z,101956.69
2023-02-09T23:42:53.470Z,101959.85
2023-02-09T23:45:25.848Z,101965.21
2023-02-09T23:47:57.688Z,101971.54
2023-02-09T23:50:29.505Z,101973.70
2023-02-09T23:53:01.227Z,101970.14
2023-02-09T23:55:33.139Z,101967.80
2023-02-09T23:58:04.897Z,101969.44
